Dodge, NE (68633)

12:01 PM CST on February 14, 2016 (GMT -0600)
Skywave Wireless, Inc. | | Change Station
CLOSE
Current Station
Personal Weather Station
Location: West Point, NE
Elevation: 1312 ft
Nearby Weather Stations

Elev 1312 ft 41.84 °N, 96.71 °W | Updated 4 seconds ago

Overcast
Overcast
30.9 °F
Feels Like 26 °F
N
4.5
Wind Variable Wind from WNW
Gusts 4.9 mph

Today
High -- | Low -- °F
--% Chance of Precip.
Yesterday
High -- | Low -- °F
Precip. -- in
Pressure 29.85 in
Visibility 10.0 miles
Clouds Scattered Clouds 2200 ft
Mostly Cloudy 4500 ft
Windchill 26 °F
Dew Point 20 °F
Humidity 64%
Rainfall 0.00 in
Snow Depth Not available.
7:24 AM 5:59 PM
Waxing Crescent, 44% visible
METAR KFET 141735Z AUTO 27009KT 10SM SCT022 BKN045 01/M03 A2985 RMK AO2 T00101026
Pressure 29.85 in
Visibility 10.0 miles
Clouds Scattered Clouds 2200 ft
Mostly Cloudy 4500 ft
Windchill 26 °F
Dew Point 20 °F
Humidity 64%
Rainfall 0.00 in
Snow Depth Not available.
7:24 AM 5:59 PM
Waxing Crescent, 44% visible
METAR KFET 141735Z AUTO 27009KT 10SM SCT022 BKN045 01/M03 A2985 RMK AO2 T00101026

10-Day Weather Forecast

Almanac

Astronomy

Feb. 14, 2016 Rise Set
Actual Time
Civil Twilight
Nautical Twilight
Astronomical Twilight
Moon
Length of Visible Light
Length of Day
Tomorrow will be .
, % of the Moon is Illuminated

Today's Extremes

State Highs State Lows

Community

WunderPhotos

Upload Photos

1,892,866 photos uploaded!

WunderBlog® & News

Nearby

Air Quality

  Air Quality AQ Index Pollutant
Not available.

Snow Depth

Station Depth Elevation

Earthquake Activity

City Distance Mag. Time & Date
Minimum magnitude displayed is 2.5.

Coastal Water Temperatures

Place Temperature

Stations

Nearby Weather Stations

Station Location Temp. Windchill Dew Point Humidity Wind Precip. Elev Updated Type
                   

Watches & Warnings

There are currently no watches in effect.